Bridgman, MI

4:44 PM EDT on April 24, 2017 (GMT -0400)
Near Bridgman H.S. | | Change Station

Elev 676 ft 41.94 °N, 86.55 °W | Updated 16 seconds ago

Clear
Clear
76.3 °F
Feels Like 76 °F
N
3.7
Wind Variable Wind from SW

Today
High -- | Low -- °F
--% Chance of Precip.
Yesterday
High -- | Low -- °F
Precip. -- in
Pressure 29.91 in
Visibility 10.0 miles
Clouds Clear
Heat Index 76 °F
Dew Point 30 °F
Humidity 18%
Rainfall 0.00 in
Snow Depth Not available.
6:51 AM 8:37 PM
Waning Crescent, 4% visible
METAR KBEH 241953Z AUTO 13008G17KT 110V170 10SM CLR 23/M03 A2991 RMK AO2 SLP128 T02281033 $
Pressure 29.91 in
Visibility 10.0 miles
Clouds Clear
Heat Index 76 °F
Dew Point 30 °F
Humidity 18%
Rainfall 0.00 in
Snow Depth Not available.
6:51 AM 8:37 PM
Waning Crescent, 4% visible
METAR KBEH 241953Z AUTO 13008G17KT 110V170 10SM CLR 23/M03 A2991 RMK AO2 SLP128 T02281033 $

Get Severe Weather Alerts

Thanks for signing up!

Be on the lookout for a verification email in your inbox.

You'll start receiving the daily forecast at 8 AM.

×

10-Day Weather Forecast

Almanac

Astronomy

Apr. 24, 2017 Rise Set
Actual Time
Civil Twilight
Nautical Twilight
Astronomical Twilight
Moon
Length of Visible Light
Length of Day
Tomorrow will be .
, % of the Moon is Illuminated

Today's Extremes

State Highs State Lows

Community

WunderPhotos

WunderBlog® & News

Nearby

Air Quality

  Air Quality AQ Index Pollutant
Not available.

Snow Depth

Station Depth Elevation

Earthquake Activity

City Distance Mag. Time & Date
Minimum magnitude displayed is 2.5.

Coastal Water Temperatures

Place Temperature

Stations

Nearby Weather Stations

Station Location Temp. Windchill Dew Point Humidity Wind Precip. Elev Updated Type
                   

Watches & Warnings

There are currently no watches in effect.